sensor_id;sensor_type;location;lat;lon;timestamp;P1;durP1;ratioP1;P2;durP2;ratioP2
34064;SDS011;20339;49.754;20.158;2023-01-04T00:00:14;14.90;;;9.10;;
34064;SDS011;20339;49.754;20.158;2023-01-04T00:03:06;12.60;;;9.00;;
34064;SDS011;20339;49.754;20.158;2023-01-04T00:05:39;12.30;;;7.90;;
34064;SDS011;20339;49.754;20.158;2023-01-04T00:08:10;9.80;;;7.60;;
34064;SDS011;20339;49.754;20.158;2023-01-04T00:10:41;11.30;;;8.10;;
34064;SDS011;20339;49.754;20.158;2023-01-04T00:13:12;12.50;;;8.10;;
34064;SDS011;20339;49.754;20.158;2023-01-04T00:15:43;10.40;;;8.20;;
34064;SDS011;20339;49.754;20.158;2023-01-04T00:18:14;14.10;;;10.00;;
34064;SDS011;20339;49.754;20.158;2023-01-04T00:20:46;11.40;;;9.40;;
34064;SDS011;20339;49.754;20.158;2023-01-04T00:23:17;11.60;;;9.00;;
34064;SDS011;20339;49.754;20.158;2023-01-04T00:25:50;12.10;;;8.70;;
34064;SDS011;20339;49.754;20.158;2023-01-04T00:28:22;10.50;;;7.50;;
34064;SDS011;20339;49.754;20.158;2023-01-04T00:30:53;10.00;;;6.80;;
34064;SDS011;20339;49.754;20.158;2023-01-04T00:33:23;9.90;;;7.20;;
34064;SDS011;20339;49.754;20.158;2023-01-04T00:35:55;11.50;;;7.70;;
34064;SDS011;20339;49.754;20.158;2023-01-04T00:38:29;10.30;;;7.50;;
34064;SDS011;20339;49.754;20.158;2023-01-04T00:41:00;10.50;;;7.40;;
34064;SDS011;20339;49.754;20.158;2023-01-04T00:43:35;8.60;;;6.30;;
34064;SDS011;20339;49.754;20.158;2023-01-04T00:46:06;15.20;;;9.20;;
34064;SDS011;20339;49.754;20.158;2023-01-04T00:48:38;12.90;;;9.50;;
34064;SDS011;20339;49.754;20.158;2023-01-04T00:51:09;11.70;;;8.00;;
34064;SDS011;20339;49.754;20.158;2023-01-04T00:53:48;13.60;;;8.10;;
34064;SDS011;20339;49.754;20.158;2023-01-04T00:56:19;12.70;;;8.80;;
34064;SDS011;20339;49.754;20.158;2023-01-04T00:58:53;12.40;;;9.40;;
34064;SDS011;20339;49.754;20.158;2023-01-04T01:01:28;12.20;;;8.90;;
34064;SDS011;20339;49.754;20.158;2023-01-04T01:04:02;13.10;;;9.00;;
34064;SDS011;20339;49.754;20.158;2023-01-04T01:06:33;12.90;;;8.90;;
34064;SDS011;20339;49.754;20.158;2023-01-04T01:09:04;11.10;;;8.10;;
34064;SDS011;20339;49.754;20.158;2023-01-04T01:11:35;10.70;;;7.80;;
34064;SDS011;20339;49.754;20.158;2023-01-04T01:14:07;12.40;;;9.30;;
34064;SDS011;20339;49.754;20.158;2023-01-04T01:16:41;13.50;;;8.40;;
34064;SDS011;20339;49.754;20.158;2023-01-04T01:19:13;12.00;;;8.30;;
34064;SDS011;20339;49.754;20.158;2023-01-04T01:21:44;10.80;;;7.90;;
34064;SDS011;20339;49.754;20.158;2023-01-04T01:24:18;14.20;;;8.10;;
34064;SDS011;20339;49.754;20.158;2023-01-04T01:26:51;12.70;;;8.90;;
34064;SDS011;20339;49.754;20.158;2023-01-04T01:29:23;13.90;;;9.40;;
34064;SDS011;20339;49.754;20.158;2023-01-04T01:31:54;14.40;;;9.70;;
34064;SDS011;20339;49.754;20.158;2023-01-04T01:34:25;12.70;;;8.50;;
34064;SDS011;20339;49.754;20.158;2023-01-04T01:36:56;11.00;;;8.30;;
34064;SDS011;20339;49.754;20.158;2023-01-04T01:39:27;10.60;;;8.10;;
34064;SDS011;20339;49.754;20.158;2023-01-04T01:41:59;13.80;;;8.50;;
34064;SDS011;20339;49.754;20.158;2023-01-04T01:47:25;11.70;;;7.60;;
34064;SDS011;20339;49.754;20.158;2023-01-04T01:50:03;11.90;;;7.80;;
34064;SDS011;20339;49.754;20.158;2023-01-04T01:52:45;10.30;;;7.40;;
34064;SDS011;20339;49.754;20.158;2023-01-04T01:55:19;12.00;;;8.30;;
34064;SDS011;20339;49.754;20.158;2023-01-04T01:57:51;14.40;;;10.00;;
34064;SDS011;20339;49.754;20.158;2023-01-04T02:00:24;14.10;;;9.50;;
34064;SDS011;20339;49.754;20.158;2023-01-04T02:03:06;12.20;;;8.90;;
34064;SDS011;20339;49.754;20.158;2023-01-04T02:05:41;11.00;;;7.70;;
34064;SDS011;20339;49.754;20.158;2023-01-04T02:08:15;12.10;;;8.00;;
34064;SDS011;20339;49.754;20.158;2023-01-04T02:10:50;11.80;;;6.90;;
34064;SDS011;20339;49.754;20.158;2023-01-04T02:13:22;12.10;;;8.10;;
34064;SDS011;20339;49.754;20.158;2023-01-04T02:16:18;11.10;;;7.90;;
34064;SDS011;20339;49.754;20.158;2023-01-04T02:19:03;12.10;;;7.40;;
34064;SDS011;20339;49.754;20.158;2023-01-04T02:21:48;12.50;;;8.20;;
34064;SDS011;20339;49.754;20.158;2023-01-04T02:24:31;14.00;;;8.90;;
34064;SDS011;20339;49.754;20.158;2023-01-04T02:27:20;13.40;;;7.60;;
34064;SDS011;20339;49.754;20.158;2023-01-04T02:30:12;12.40;;;7.90;;
34064;SDS011;20339;49.754;20.158;2023-01-04T02:33:08;14.20;;;8.60;;
34064;SDS011;20339;49.754;20.158;2023-01-04T02:35:51;14.30;;;8.60;;
34064;SDS011;20339;49.754;20.158;2023-01-04T02:38:29;12.30;;;8.30;;
34064;SDS011;20339;49.754;20.158;2023-01-04T02:41:07;14.30;;;8.60;;
34064;SDS011;20339;49.754;20.158;2023-01-04T02:43:49;12.70;;;8.40;;
34064;SDS011;20339;49.754;20.158;2023-01-04T02:46:42;13.00;;;8.80;;
34064;SDS011;20339;49.754;20.158;2023-01-04T02:49:17;13.80;;;8.30;;
34064;SDS011;20339;49.754;20.158;2023-01-04T02:52:06;14.50;;;9.80;;
34064;SDS011;20339;49.754;20.158;2023-01-04T02:54:40;15.50;;;10.40;;
34064;SDS011;20339;49.754;20.158;2023-01-04T02:57:34;14.90;;;10.00;;
34064;SDS011;20339;49.754;20.158;2023-01-04T03:00:22;14.80;;;10.10;;
34064;SDS011;20339;49.754;20.158;2023-01-04T03:03:07;13.70;;;9.20;;
34064;SDS011;20339;49.754;20.158;2023-01-04T03:08:48;14.00;;;9.40;;
34064;SDS011;20339;49.754;20.158;2023-01-04T03:11:26;13.80;;;10.30;;
34064;SDS011;20339;49.754;20.158;2023-01-04T03:14:22;13.30;;;9.50;;
34064;SDS011;20339;49.754;20.158;2023-01-04T03:16:56;16.60;;;10.80;;
34064;SDS011;20339;49.754;20.158;2023-01-04T03:19:28;14.20;;;10.40;;
34064;SDS011;20339;49.754;20.158;2023-01-04T03:22:24;16.30;;;11.10;;
34064;SDS011;20339;49.754;20.158;2023-01-04T03:25:22;14.70;;;10.20;;
34064;SDS011;20339;49.754;20.158;2023-01-04T03:28:17;16.70;;;11.40;;
34064;SDS011;20339;49.754;20.158;2023-01-04T03:31:11;15.90;;;11.20;;
34064;SDS011;20339;49.754;20.158;2023-01-04T03:34:02;16.00;;;11.40;;
34064;SDS011;20339;49.754;20.158;2023-01-04T03:37:06;17.30;;;11.80;;
34064;SDS011;20339;49.754;20.158;2023-01-04T03:39:46;19.40;;;12.90;;
34064;SDS011;20339;49.754;20.158;2023-01-04T03:42:46;18.50;;;12.10;;
34064;SDS011;20339;49.754;20.158;2023-01-04T03:45:43;17.80;;;11.80;;
34064;SDS011;20339;49.754;20.158;2023-01-04T03:48:37;14.00;;;10.30;;
34064;SDS011;20339;49.754;20.158;2023-01-04T03:51:20;16.40;;;11.90;;
34064;SDS011;20339;49.754;20.158;2023-01-04T03:53:55;21.00;;;12.40;;
34064;SDS011;20339;49.754;20.158;2023-01-04T03:56:31;17.30;;;12.40;;
34064;SDS011;20339;49.754;20.158;2023-01-04T03:59:09;18.80;;;12.90;;
34064;SDS011;20339;49.754;20.158;2023-01-04T04:01:41;18.40;;;12.60;;
34064;SDS011;20339;49.754;20.158;2023-01-04T04:04:13;17.30;;;12.30;;
34064;SDS011;20339;49.754;20.158;2023-01-04T04:07:02;19.60;;;13.30;;
34064;SDS011;20339;49.754;20.158;2023-01-04T04:09:50;18.80;;;12.30;;
34064;SDS011;20339;49.754;20.158;2023-01-04T04:12:21;19.90;;;13.90;;
34064;SDS011;20339;49.754;20.158;2023-01-04T04:14:52;21.30;;;13.80;;
34064;SDS011;20339;49.754;20.158;2023-01-04T04:17:27;20.10;;;12.20;;
34064;SDS011;20339;49.754;20.158;2023-01-04T04:19:58;18.70;;;13.10;;
34064;SDS011;20339;49.754;20.158;2023-01-04T04:22:31;21.10;;;14.40;;
34064;SDS011;20339;49.754;20.158;2023-01-04T04:25:02;17.00;;;11.50;;
34064;SDS011;20339;49.754;20.158;2023-01-04T04:27:34;18.50;;;13.30;;
34064;SDS011;20339;49.754;20.158;2023-01-04T04:30:08;19.80;;;12.40;;
34064;SDS011;20339;49.754;20.158;2023-01-04T04:32:40;16.60;;;10.80;;
34064;SDS011;20339;49.754;20.158;2023-01-04T04:35:10;18.30;;;12.80;;
34064;SDS011;20339;49.754;20.158;2023-01-04T04:37:43;20.30;;;13.00;;
34064;SDS011;20339;49.754;20.158;2023-01-04T04:40:14;19.60;;;13.00;;
34064;SDS011;20339;49.754;20.158;2023-01-04T04:43:08;17.40;;;12.30;;
34064;SDS011;20339;49.754;20.158;2023-01-04T04:45:39;18.50;;;12.70;;
34064;SDS011;20339;49.754;20.158;2023-01-04T04:48:12;18.80;;;13.30;;
34064;SDS011;20339;49.754;20.158;2023-01-04T04:50:43;18.40;;;12.70;;
34064;SDS011;20339;49.754;20.158;2023-01-04T04:53:14;16.80;;;12.50;;
34064;SDS011;20339;49.754;20.158;2023-01-04T04:55:45;21.10;;;13.70;;
34064;SDS011;20339;49.754;20.158;2023-01-04T04:58:20;20.10;;;13.30;;
34064;SDS011;20339;49.754;20.158;2023-01-04T05:00:51;15.80;;;11.60;;
34064;SDS011;20339;49.754;20.158;2023-01-04T05:03:22;19.00;;;12.80;;
34064;SDS011;20339;49.754;20.158;2023-01-04T05:05:57;18.10;;;12.50;;
34064;SDS011;20339;49.754;20.158;2023-01-04T05:08:30;18.50;;;12.50;;
34064;SDS011;20339;49.754;20.158;2023-01-04T05:11:04;18.00;;;12.50;;
34064;SDS011;20339;49.754;20.158;2023-01-04T05:13:40;18.20;;;12.70;;
34064;SDS011;20339;49.754;20.158;2023-01-04T05:16:12;19.70;;;12.80;;
34064;SDS011;20339;49.754;20.158;2023-01-04T05:18:43;15.80;;;11.90;;
34064;SDS011;20339;49.754;20.158;2023-01-04T05:21:14;17.50;;;12.20;;
34064;SDS011;20339;49.754;20.158;2023-01-04T05:23:45;17.10;;;11.80;;
34064;SDS011;20339;49.754;20.158;2023-01-04T05:26:16;19.20;;;13.50;;
34064;SDS011;20339;49.754;20.158;2023-01-04T05:28:47;17.90;;;12.40;;
34064;SDS011;20339;49.754;20.158;2023-01-04T05:31:19;18.40;;;12.50;;
34064;SDS011;20339;49.754;20.158;2023-01-04T05:33:50;20.10;;;13.50;;
34064;SDS011;20339;49.754;20.158;2023-01-04T05:36:21;19.30;;;12.90;;
34064;SDS011;20339;49.754;20.158;2023-01-04T05:38:52;18.70;;;12.10;;
34064;SDS011;20339;49.754;20.158;2023-01-04T05:41:23;17.70;;;11.60;;
34064;SDS011;20339;49.754;20.158;2023-01-04T05:44:12;16.20;;;11.50;;
34064;SDS011;20339;49.754;20.158;2023-01-04T05:46:45;15.80;;;11.70;;
34064;SDS011;20339;49.754;20.158;2023-01-04T05:49:17;16.70;;;11.40;;
34064;SDS011;20339;49.754;20.158;2023-01-04T05:51:50;17.90;;;11.40;;
34064;SDS011;20339;49.754;20.158;2023-01-04T05:54:22;15.50;;;10.60;;
34064;SDS011;20339;49.754;20.158;2023-01-04T05:56:53;14.00;;;10.50;;
34064;SDS011;20339;49.754;20.158;2023-01-04T05:59:25;14.40;;;10.40;;
34064;SDS011;20339;49.754;20.158;2023-01-04T06:01:57;13.90;;;10.00;;
34064;SDS011;20339;49.754;20.158;2023-01-04T06:04:29;14.20;;;9.20;;
34064;SDS011;20339;49.754;20.158;2023-01-04T06:07:00;14.30;;;10.30;;
34064;SDS011;20339;49.754;20.158;2023-01-04T06:09:31;16.30;;;11.40;;
34064;SDS011;20339;49.754;20.158;2023-01-04T06:12:03;17.10;;;10.90;;
34064;SDS011;20339;49.754;20.158;2023-01-04T06:14:34;16.70;;;10.90;;
34064;SDS011;20339;49.754;20.158;2023-01-04T06:17:06;16.70;;;11.80;;
34064;SDS011;20339;49.754;20.158;2023-01-04T06:19:37;15.80;;;11.20;;
34064;SDS011;20339;49.754;20.158;2023-01-04T06:22:09;16.80;;;10.10;;
34064;SDS011;20339;49.754;20.158;2023-01-04T06:24:40;14.30;;;10.10;;
34064;SDS011;20339;49.754;20.158;2023-01-04T06:27:13;15.10;;;9.80;;
34064;SDS011;20339;49.754;20.158;2023-01-04T06:29:47;16.00;;;10.30;;
34064;SDS011;20339;49.754;20.158;2023-01-04T06:32:19;14.70;;;10.20;;
34064;SDS011;20339;49.754;20.158;2023-01-04T06:34:50;15.10;;;9.40;;
34064;SDS011;20339;49.754;20.158;2023-01-04T06:37:20;15.30;;;10.40;;
34064;SDS011;20339;49.754;20.158;2023-01-04T06:39:51;16.90;;;10.70;;
34064;SDS011;20339;49.754;20.158;2023-01-04T06:42:23;17.00;;;11.60;;
34064;SDS011;20339;49.754;20.158;2023-01-04T06:45:11;16.70;;;11.40;;
34064;SDS011;20339;49.754;20.158;2023-01-04T06:47:43;14.50;;;10.70;;
34064;SDS011;20339;49.754;20.158;2023-01-04T06:50:14;16.40;;;10.60;;
34064;SDS011;20339;49.754;20.158;2023-01-04T06:52:46;15.40;;;9.80;;
34064;SDS011;20339;49.754;20.158;2023-01-04T06:55:17;14.30;;;9.20;;
34064;SDS011;20339;49.754;20.158;2023-01-04T06:57:48;13.60;;;8.60;;
34064;SDS011;20339;49.754;20.158;2023-01-04T07:00:20;14.80;;;9.00;;
34064;SDS011;20339;49.754;20.158;2023-01-04T07:02:52;15.10;;;9.60;;
34064;SDS011;20339;49.754;20.158;2023-01-04T07:05:23;12.70;;;8.30;;
34064;SDS011;20339;49.754;20.158;2023-01-04T07:07:54;11.20;;;7.40;;
34064;SDS011;20339;49.754;20.158;2023-01-04T07:10:27;11.10;;;6.40;;
34064;SDS011;20339;49.754;20.158;2023-01-04T07:12:59;10.10;;;6.40;;
34064;SDS011;20339;49.754;20.158;2023-01-04T07:15:30;10.10;;;4.60;;
34064;SDS011;20339;49.754;20.158;2023-01-04T07:18:02;10.00;;;4.70;;
34064;SDS011;20339;49.754;20.158;2023-01-04T07:20:33;11.10;;;7.50;;
34064;SDS011;20339;49.754;20.158;2023-01-04T07:23:04;9.80;;;6.40;;
34064;SDS011;20339;49.754;20.158;2023-01-04T07:25:36;10.10;;;6.70;;
34064;SDS011;20339;49.754;20.158;2023-01-04T07:28:07;8.90;;;6.10;;
34064;SDS011;20339;49.754;20.158;2023-01-04T07:30:38;10.30;;;6.50;;
34064;SDS011;20339;49.754;20.158;2023-01-04T07:33:09;7.70;;;5.50;;
34064;SDS011;20339;49.754;20.158;2023-01-04T07:35:40;9.50;;;6.10;;
34064;SDS011;20339;49.754;20.158;2023-01-04T07:38:11;7.90;;;5.50;;
34064;SDS011;20339;49.754;20.158;2023-01-04T07:40:42;9.00;;;6.20;;
34064;SDS011;20339;49.754;20.158;2023-01-04T07:43:13;6.80;;;4.90;;
34064;SDS011;20339;49.754;20.158;2023-01-04T07:45:44;7.10;;;4.80;;
34064;SDS011;20339;49.754;20.158;2023-01-04T07:48:15;10.20;;;5.50;;
34064;SDS011;20339;49.754;20.158;2023-01-04T07:50:47;7.40;;;4.80;;
34064;SDS011;20339;49.754;20.158;2023-01-04T07:53:18;8.50;;;5.70;;
34064;SDS011;20339;49.754;20.158;2023-01-04T07:55:54;6.30;;;4.20;;
34064;SDS011;20339;49.754;20.158;2023-01-04T07:58:29;9.80;;;4.90;;
34064;SDS011;20339;49.754;20.158;2023-01-04T08:01:08;8.80;;;4.50;;
34064;SDS011;20339;49.754;20.158;2023-01-04T08:03:41;6.10;;;4.10;;
34064;SDS011;20339;49.754;20.158;2023-01-04T08:06:17;9.60;;;6.30;;
34064;SDS011;20339;49.754;20.158;2023-01-04T08:08:49;8.90;;;5.10;;
34064;SDS011;20339;49.754;20.158;2023-01-04T08:11:20;9.20;;;5.70;;
34064;SDS011;20339;49.754;20.158;2023-01-04T08:13:51;9.30;;;5.70;;
34064;SDS011;20339;49.754;20.158;2023-01-04T08:16:25;8.60;;;5.50;;
34064;SDS011;20339;49.754;20.158;2023-01-04T08:18:59;11.40;;;6.10;;
34064;SDS011;20339;49.754;20.158;2023-01-04T08:21:32;8.10;;;5.40;;
34064;SDS011;20339;49.754;20.158;2023-01-04T08:24:04;8.90;;;5.60;;
34064;SDS011;20339;49.754;20.158;2023-01-04T08:26:37;10.00;;;5.70;;
34064;SDS011;20339;49.754;20.158;2023-01-04T08:29:09;9.60;;;5.60;;
34064;SDS011;20339;49.754;20.158;2023-01-04T08:31:41;9.90;;;6.60;;
34064;SDS011;20339;49.754;20.158;2023-01-04T08:34:12;9.90;;;5.90;;
34064;SDS011;20339;49.754;20.158;2023-01-04T08:36:47;8.30;;;4.40;;
34064;SDS011;20339;49.754;20.158;2023-01-04T08:39:20;9.20;;;6.30;;
34064;SDS011;20339;49.754;20.158;2023-01-04T08:41:51;9.80;;;6.30;;
34064;SDS011;20339;49.754;20.158;2023-01-04T08:44:22;8.30;;;5.70;;
34064;SDS011;20339;49.754;20.158;2023-01-04T08:46:54;9.30;;;6.00;;
34064;SDS011;20339;49.754;20.158;2023-01-04T08:49:25;10.70;;;5.70;;
34064;SDS011;20339;49.754;20.158;2023-01-04T08:51:57;8.00;;;5.40;;
34064;SDS011;20339;49.754;20.158;2023-01-04T08:54:28;7.80;;;5.20;;
34064;SDS011;20339;49.754;20.158;2023-01-04T08:57:01;8.20;;;5.30;;
34064;SDS011;20339;49.754;20.158;2023-01-04T08:59:39;7.00;;;5.10;;
34064;SDS011;20339;49.754;20.158;2023-01-04T09:02:12;8.30;;;5.40;;
34064;SDS011;20339;49.754;20.158;2023-01-04T09:04:52;7.90;;;5.00;;
34064;SDS011;20339;49.754;20.158;2023-01-04T09:07:28;7.40;;;4.00;;
34064;SDS011;20339;49.754;20.158;2023-01-04T09:10:00;6.20;;;4.10;;
34064;SDS011;20339;49.754;20.158;2023-01-04T09:12:31;6.00;;;4.10;;
34064;SDS011;20339;49.754;20.158;2023-01-04T09:15:03;7.00;;;4.10;;
34064;SDS011;20339;49.754;20.158;2023-01-04T09:17:36;6.90;;;3.90;;
34064;SDS011;20339;49.754;20.158;2023-01-04T09:20:08;9.30;;;5.20;;
34064;SDS011;20339;49.754;20.158;2023-01-04T09:22:39;9.10;;;5.10;;
34064;SDS011;20339;49.754;20.158;2023-01-04T09:25:10;9.50;;;6.10;;
34064;SDS011;20339;49.754;20.158;2023-01-04T09:27:44;10.90;;;6.70;;
34064;SDS011;20339;49.754;20.158;2023-01-04T09:30:15;10.50;;;6.90;;
34064;SDS011;20339;49.754;20.158;2023-01-04T09:32:46;11.10;;;5.70;;
34064;SDS011;20339;49.754;20.158;2023-01-04T09:35:17;11.30;;;5.90;;
34064;SDS011;20339;49.754;20.158;2023-01-04T09:37:49;7.40;;;5.40;;
34064;SDS011;20339;49.754;20.158;2023-01-04T09:40:21;12.90;;;6.90;;
34064;SDS011;20339;49.754;20.158;2023-01-04T09:42:59;11.50;;;7.50;;
34064;SDS011;20339;49.754;20.158;2023-01-04T09:45:33;11.70;;;7.00;;
34064;SDS011;20339;49.754;20.158;2023-01-04T09:48:05;9.60;;;5.80;;
34064;SDS011;20339;49.754;20.158;2023-01-04T09:50:44;8.80;;;5.30;;
34064;SDS011;20339;49.754;20.158;2023-01-04T09:53:22;8.40;;;4.50;;
34064;SDS011;20339;49.754;20.158;2023-01-04T09:55:59;9.10;;;5.10;;
34064;SDS011;20339;49.754;20.158;2023-01-04T09:58:37;8.10;;;4.80;;
34064;SDS011;20339;49.754;20.158;2023-01-04T10:01:13;11.00;;;6.10;;
34064;SDS011;20339;49.754;20.158;2023-01-04T10:03:52;7.70;;;4.50;;
34064;SDS011;20339;49.754;20.158;2023-01-04T10:06:41;9.90;;;5.00;;
34064;SDS011;20339;49.754;20.158;2023-01-04T10:09:15;8.20;;;4.70;;
34064;SDS011;20339;49.754;20.158;2023-01-04T10:12:03;8.30;;;4.90;;
34064;SDS011;20339;49.754;20.158;2023-01-04T10:14:48;9.80;;;5.20;;
34064;SDS011;20339;49.754;20.158;2023-01-04T10:17:30;8.60;;;4.40;;
34064;SDS011;20339;49.754;20.158;2023-01-04T10:20:30;7.30;;;4.80;;
34064;SDS011;20339;49.754;20.158;2023-01-04T10:23:27;10.00;;;5.30;;
34064;SDS011;20339;49.754;20.158;2023-01-04T10:26:11;7.90;;;4.60;;
34064;SDS011;20339;49.754;20.158;2023-01-04T10:31:41;7.10;;;3.50;;
34064;SDS011;20339;49.754;20.158;2023-01-04T10:34:19;8.10;;;4.50;;
34064;SDS011;20339;49.754;20.158;2023-01-04T10:36:58;7.10;;;4.60;;
34064;SDS011;20339;49.754;20.158;2023-01-04T10:39:40;8.80;;;5.50;;
34064;SDS011;20339;49.754;20.158;2023-01-04T10:42:16;7.60;;;4.70;;
34064;SDS011;20339;49.754;20.158;2023-01-04T10:45:00;7.50;;;5.10;;
34064;SDS011;20339;49.754;20.158;2023-01-04T10:47:45;7.90;;;3.20;;
34064;SDS011;20339;49.754;20.158;2023-01-04T10:50:28;8.10;;;4.80;;
34064;SDS011;20339;49.754;20.158;2023-01-04T10:53:11;7.40;;;4.30;;
34064;SDS011;20339;49.754;20.158;2023-01-04T10:55:52;8.10;;;4.80;;
34064;SDS011;20339;49.754;20.158;2023-01-04T10:58:30;7.20;;;4.80;;
34064;SDS011;20339;49.754;20.158;2023-01-04T11:01:07;6.20;;;4.00;;
34064;SDS011;20339;49.754;20.158;2023-01-04T11:03:45;7.40;;;4.70;;
34064;SDS011;20339;49.754;20.158;2023-01-04T11:06:22;7.90;;;4.10;;
34064;SDS011;20339;49.754;20.158;2023-01-04T11:09:01;7.60;;;4.20;;
34064;SDS011;20339;49.754;20.158;2023-01-04T11:14:26;8.20;;;4.60;;
34064;SDS011;20339;49.754;20.158;2023-01-04T11:17:04;8.30;;;3.80;;
34064;SDS011;20339;49.754;20.158;2023-01-04T11:19:42;6.20;;;4.40;;
34064;SDS011;20339;49.754;20.158;2023-01-04T11:22:17;7.90;;;4.80;;
34064;SDS011;20339;49.754;20.158;2023-01-04T11:25:00;8.20;;;4.20;;
34064;SDS011;20339;49.754;20.158;2023-01-04T11:27:38;8.00;;;4.50;;
34064;SDS011;20339;49.754;20.158;2023-01-04T11:30:15;9.50;;;5.00;;
34064;SDS011;20339;49.754;20.158;2023-01-04T11:32:50;9.40;;;4.20;;
34064;SDS011;20339;49.754;20.158;2023-01-04T11:35:37;7.50;;;4.90;;
34064;SDS011;20339;49.754;20.158;2023-01-04T11:38:14;8.50;;;4.30;;
34064;SDS011;20339;49.754;20.158;2023-01-04T11:40:54;6.60;;;3.90;;
34064;SDS011;20339;49.754;20.158;2023-01-04T11:43:27;7.70;;;4.00;;
34064;SDS011;20339;49.754;20.158;2023-01-04T11:46:01;4.60;;;3.10;;
34064;SDS011;20339;49.754;20.158;2023-01-04T11:48:35;7.40;;;4.40;;
34064;SDS011;20339;49.754;20.158;2023-01-04T11:51:32;7.80;;;4.00;;
34064;SDS011;20339;49.754;20.158;2023-01-04T11:54:16;5.50;;;3.70;;
34064;SDS011;20339;49.754;20.158;2023-01-04T11:56:58;6.10;;;3.00;;
34064;SDS011;20339;49.754;20.158;2023-01-04T11:59:30;4.90;;;3.00;;
34064;SDS011;20339;49.754;20.158;2023-01-04T12:02:16;5.10;;;3.00;;
34064;SDS011;20339;49.754;20.158;2023-01-04T12:04:49;4.00;;;2.40;;
34064;SDS011;20339;49.754;20.158;2023-01-04T12:07:26;4.20;;;2.30;;
34064;SDS011;20339;49.754;20.158;2023-01-04T12:10:19;5.80;;;3.30;;
34064;SDS011;20339;49.754;20.158;2023-01-04T12:12:54;4.30;;;2.50;;
34064;SDS011;20339;49.754;20.158;2023-01-04T12:15:32;6.60;;;3.50;;
34064;SDS011;20339;49.754;20.158;2023-01-04T12:18:11;3.10;;;1.70;;
34064;SDS011;20339;49.754;20.158;2023-01-04T12:20:48;3.70;;;1.70;;
34064;SDS011;20339;49.754;20.158;2023-01-04T12:23:19;4.80;;;2.60;;
34064;SDS011;20339;49.754;20.158;2023-01-04T12:25:51;2.30;;;1.50;;
34064;SDS011;20339;49.754;20.158;2023-01-04T12:28:34;3.40;;;2.30;;
34064;SDS011;20339;49.754;20.158;2023-01-04T12:37:03;5.00;;;2.60;;
34064;SDS011;20339;49.754;20.158;2023-01-04T12:39:36;4.60;;;1.90;;
34064;SDS011;20339;49.754;20.158;2023-01-04T12:47:54;6.40;;;3.30;;
34064;SDS011;20339;49.754;20.158;2023-01-04T12:53:50;4.50;;;1.90;;
34064;SDS011;20339;49.754;20.158;2023-01-04T12:59:41;4.60;;;2.20;;
34064;SDS011;20339;49.754;20.158;2023-01-04T13:02:24;2.70;;;1.70;;
34064;SDS011;20339;49.754;20.158;2023-01-04T13:05:01;2.90;;;1.60;;
34064;SDS011;20339;49.754;20.158;2023-01-04T13:07:53;2.80;;;1.90;;
34064;SDS011;20339;49.754;20.158;2023-01-04T13:10:30;3.80;;;2.10;;
34064;SDS011;20339;49.754;20.158;2023-01-04T13:13:14;2.10;;;1.30;;
34064;SDS011;20339;49.754;20.158;2023-01-04T13:16:01;3.50;;;2.10;;
34064;SDS011;20339;49.754;20.158;2023-01-04T13:18:45;3.40;;;2.00;;
34064;SDS011;20339;49.754;20.158;2023-01-04T13:21:23;2.90;;;1.40;;
34064;SDS011;20339;49.754;20.158;2023-01-04T13:23:57;2.80;;;1.70;;
34064;SDS011;20339;49.754;20.158;2023-01-04T13:26:35;2.70;;;1.50;;
34064;SDS011;20339;49.754;20.158;2023-01-04T13:29:15;3.80;;;1.30;;
34064;SDS011;20339;49.754;20.158;2023-01-04T13:31:50;2.50;;;1.60;;
34064;SDS011;20339;49.754;20.158;2023-01-04T13:34:25;2.70;;;1.90;;
34064;SDS011;20339;49.754;20.158;2023-01-04T13:37:04;3.50;;;1.60;;
34064;SDS011;20339;49.754;20.158;2023-01-04T13:39:42;5.20;;;2.10;;
34064;SDS011;20339;49.754;20.158;2023-01-04T13:42:17;3.10;;;1.90;;
34064;SDS011;20339;49.754;20.158;2023-01-04T13:48:08;3.00;;;1.50;;
34064;SDS011;20339;49.754;20.158;2023-01-04T13:50:56;3.10;;;1.70;;
34064;SDS011;20339;49.754;20.158;2023-01-04T13:53:29;3.30;;;2.00;;
34064;SDS011;20339;49.754;20.158;2023-01-04T13:56:02;4.00;;;1.70;;
34064;SDS011;20339;49.754;20.158;2023-01-04T13:58:34;3.50;;;1.80;;
34064;SDS011;20339;49.754;20.158;2023-01-04T14:01:06;4.60;;;1.90;;
34064;SDS011;20339;49.754;20.158;2023-01-04T14:03:46;4.60;;;2.00;;
34064;SDS011;20339;49.754;20.158;2023-01-04T14:06:24;4.20;;;2.50;;
34064;SDS011;20339;49.754;20.158;2023-01-04T14:09:03;3.80;;;1.80;;
34064;SDS011;20339;49.754;20.158;2023-01-04T14:11:43;3.10;;;1.40;;
34064;SDS011;20339;49.754;20.158;2023-01-04T14:14:30;2.70;;;1.70;;
34064;SDS011;20339;49.754;20.158;2023-01-04T14:17:11;4.10;;;1.90;;
34064;SDS011;20339;49.754;20.158;2023-01-04T14:19:46;2.70;;;1.40;;
34064;SDS011;20339;49.754;20.158;2023-01-04T14:22:24;3.90;;;1.80;;
34064;SDS011;20339;49.754;20.158;2023-01-04T14:28:27;3.60;;;2.00;;
34064;SDS011;20339;49.754;20.158;2023-01-04T14:33:47;5.60;;;2.40;;
34064;SDS011;20339;49.754;20.158;2023-01-04T14:36:22;3.60;;;2.40;;
34064;SDS011;20339;49.754;20.158;2023-01-04T14:38:59;4.10;;;2.10;;
34064;SDS011;20339;49.754;20.158;2023-01-04T14:41:50;4.40;;;2.70;;
34064;SDS011;20339;49.754;20.158;2023-01-04T14:44:24;3.40;;;1.70;;
34064;SDS011;20339;49.754;20.158;2023-01-04T14:46:58;4.30;;;2.40;;
34064;SDS011;20339;49.754;20.158;2023-01-04T14:49:34;6.00;;;2.50;;
34064;SDS011;20339;49.754;20.158;2023-01-04T14:52:09;4.30;;;2.50;;
34064;SDS011;20339;49.754;20.158;2023-01-04T14:54:47;3.70;;;2.40;;
34064;SDS011;20339;49.754;20.158;2023-01-04T14:57:18;3.30;;;1.80;;
34064;SDS011;20339;49.754;20.158;2023-01-04T14:59:49;4.00;;;2.20;;
34064;SDS011;20339;49.754;20.158;2023-01-04T15:02:20;4.70;;;2.20;;
34064;SDS011;20339;49.754;20.158;2023-01-04T15:04:53;3.80;;;2.50;;
34064;SDS011;20339;49.754;20.158;2023-01-04T15:07:33;2.90;;;1.40;;
34064;SDS011;20339;49.754;20.158;2023-01-04T15:10:17;3.60;;;2.40;;
34064;SDS011;20339;49.754;20.158;2023-01-04T15:12:50;4.70;;;2.20;;
34064;SDS011;20339;49.754;20.158;2023-01-04T15:15:21;5.10;;;2.40;;
34064;SDS011;20339;49.754;20.158;2023-01-04T15:17:52;4.10;;;2.10;;
34064;SDS011;20339;49.754;20.158;2023-01-04T15:20:26;4.80;;;2.20;;
34064;SDS011;20339;49.754;20.158;2023-01-04T15:22:57;3.60;;;2.30;;
34064;SDS011;20339;49.754;20.158;2023-01-04T15:25:28;4.10;;;2.50;;
34064;SDS011;20339;49.754;20.158;2023-01-04T15:27:59;2.80;;;1.80;;
34064;SDS011;20339;49.754;20.158;2023-01-04T15:30:30;4.30;;;2.10;;
34064;SDS011;20339;49.754;20.158;2023-01-04T15:33:01;4.00;;;2.40;;
34064;SDS011;20339;49.754;20.158;2023-01-04T15:35:35;4.10;;;2.50;;
34064;SDS011;20339;49.754;20.158;2023-01-04T15:38:06;3.10;;;2.00;;
34064;SDS011;20339;49.754;20.158;2023-01-04T15:40:37;3.10;;;1.60;;
34064;SDS011;20339;49.754;20.158;2023-01-04T15:43:09;3.80;;;2.60;;
34064;SDS011;20339;49.754;20.158;2023-01-04T15:45:41;3.10;;;1.90;;
34064;SDS011;20339;49.754;20.158;2023-01-04T15:48:12;3.60;;;2.20;;
34064;SDS011;20339;49.754;20.158;2023-01-04T15:50:44;5.00;;;2.10;;
34064;SDS011;20339;49.754;20.158;2023-01-04T15:53:15;2.60;;;1.80;;
34064;SDS011;20339;49.754;20.158;2023-01-04T15:55:47;5.70;;;2.30;;